Birch, Minnesota
Current Conditions -  °F | °C
As of 7:31 PM on Tuesday 25 Nov 2014 (Local Time) from KVWU Reporting Station
Overcast Overcast  
Wind Chill: 19°   Ceiling: 2900
Heat Index: 19°   Visibility: 10mi
Dew Point: 16°   Wind: 0mph
Humidity: 86%   Direction: NA
Pressure: 29.98"   Gusts: NA
Location:  47.7306°N, 94.3762°W
Report Text: KVWU 260131Z AUTO 00000KT 10SM OVC029 M07/M09 A2998 RMK AO2
Loading
Personal Weather Stations






























Interactive Weather Map New forecast layout! Learn more

10-Day Weather Forecast

Advertisements
Track Severe Weather on mobile